Time;durP1;ratioP1;P1;durP2;ratioP2;P2;SDS_P1;SDS_P2;PMS_P1;PMS_P2;Temp;Humidity;BMP_temperature;BMP_pressure;BME280_temperature;BME280_humidity;BME280_pressure;Samples;Min_cycle;Max_cycle;Signal;HPM_P1;HPM_P2
2023/06/08 00:02:28;;;;;;;21.52;17.17;;;;;;;13.03;100.00;99788.41;5115711;27;20104;-78
2023/06/08 00:05:13;;;;;;;22.45;16.90;;;;;;;13.23;100.00;99791.19;5123639;27;20046;-78
2023/06/08 00:07:57;;;;;;;19.30;16.50;;;;;;;13.39;100.00;99791.91;5125627;27;20045;-78
2023/06/08 00:10:45;;;;;;;22.88;18.75;;;;;;;13.46;100.00;99795.41;5127257;27;20599;-77
2023/06/08 00:13:30;;;;;;;25.08;19.83;;;;;;;13.46;100.00;99789.31;5120491;27;20397;-78
2023/06/08 00:16:14;;;;;;;26.83;22.20;;;;;;;13.36;100.00;99787.81;5116516;27;21399;-76
2023/06/08 00:18:58;;;;;;;27.77;22.58;;;;;;;13.17;100.00;99784.06;5119395;27;20070;-77
2023/06/08 00:21:43;;;;;;;26.63;22.77;;;;;;;13.38;100.00;99793.72;5107068;27;20038;-78
2023/06/08 00:24:26;;;;;;;27.60;23.10;;;;;;;13.55;100.00;99785.50;5095063;27;20397;-76
2023/06/08 00:27:11;;;;;;;26.50;22.05;;;;;;;13.49;100.00;99791.56;5123383;27;20385;-77
2023/06/08 00:29:55;;;;;;;27.73;22.67;;;;;;;13.50;100.00;99780.03;5121604;27;20043;-78
2023/06/08 00:32:40;;;;;;;26.83;22.23;;;;;;;13.45;100.00;99785.88;5123697;27;20054;-77
2023/06/08 00:35:24;;;;;;;28.38;23.45;;;;;;;13.07;100.00;99770.41;5104952;27;20092;-77
2023/06/08 00:38:08;;;;;;;27.85;22.10;;;;;;;13.45;100.00;99775.31;5105165;27;20050;-77
2023/06/08 00:40:52;;;;;;;25.80;21.05;;;;;;;13.27;100.00;99779.25;5106125;27;20122;-78
2023/06/08 00:43:36;;;;;;;26.77;21.67;;;;;;;13.52;100.00;99780.63;5122154;27;20400;-77
2023/06/08 00:46:24;;;;;;;24.85;21.08;;;;;;;13.36;100.00;99765.91;5127337;27;20038;-78
2023/06/08 00:49:08;;;;;;;26.38;20.80;;;;;;;13.13;100.00;99777.53;5123271;27;20065;-77
2023/06/08 00:51:53;;;;;;;24.02;21.42;;;;;;;13.12;100.00;99775.91;5129645;27;20053;-77
2023/06/08 00:54:39;;;;;;;25.80;21.02;;;;;;;13.27;100.00;99773.97;5128260;27;20073;-76
2023/06/08 00:57:25;;;;;;;24.17;21.15;;;;;;;13.31;100.00;99770.94;5116467;27;20559;-77
2023/06/08 01:00:11;;;;;;;27.48;22.50;;;;;;;13.21;100.00;99755.47;5120088;27;20058;-77
2023/06/08 01:02:56;;;;;;;29.35;22.45;;;;;;;13.27;100.00;99768.69;5122225;27;20112;-76
2023/06/08 01:05:43;;;;;;;28.23;22.65;;;;;;;13.26;100.00;99777.63;5118523;27;20462;-78
2023/06/08 01:08:43;;;;;;;30.90;24.33;;;;;;;13.21;100.00;99774.75;5117309;27;20047;-77
2023/06/08 01:11:58;;;;;;;28.42;23.45;;;;;;;12.98;100.00;99786.38;5099109;27;20121;-78
2023/06/08 01:14:54;;;;;;;32.80;25.05;;;;;;;12.83;100.00;99769.84;5122648;27;20441;-78
2023/06/08 01:17:40;;;;;;;37.17;25.83;;;;;;;13.16;100.00;99771.88;5116337;27;20412;-78
2023/06/08 01:20:41;;;;;;;33.83;26.50;;;;;;;13.21;100.00;99760.75;5118618;27;20405;-78
2023/06/08 01:24:02;;;;;;;32.58;24.23;;;;;;;12.99;100.00;99772.19;5119972;27;20093;-80
2023/06/08 01:26:49;;;;;;;32.67;25.13;;;;;;;12.96;100.00;99777.81;5111490;27;20035;-77
2023/06/08 01:29:33;;;;;;;32.00;26.17;;;;;;;12.95;100.00;99765.66;5110859;27;20100;-79
2023/06/08 01:32:19;;;;;;;31.17;25.05;;;;;;;12.70;100.00;99749.47;5118328;27;20049;-78
2023/06/08 01:35:04;;;;;;;33.72;25.30;;;;;;;12.92;100.00;99759.97;5117048;27;20073;-79
2023/06/08 01:37:55;;;;;;;31.45;24.65;;;;;;;12.97;100.00;99771.56;5114853;27;20554;-78
2023/06/08 01:40:43;;;;;;;31.58;23.98;;;;;;;12.92;100.00;99750.22;5115189;27;20045;-78
2023/06/08 01:43:31;;;;;;;28.90;23.88;;;;;;;13.01;100.00;99753.53;5119102;27;22166;-78
2023/06/08 01:46:17;;;;;;;28.17;22.67;;;;;;;13.08;100.00;99764.13;5113841;27;20421;-78
2023/06/08 01:49:03;;;;;;;31.30;23.02;;;;;;;13.11;100.00;99758.47;5123570;27;20065;-77
2023/06/08 01:51:47;;;;;;;27.30;22.70;;;;;;;13.21;100.00;99764.22;5102770;27;20046;-77
2023/06/08 01:54:31;;;;;;;;;;;;;;;13.03;100.00;99771.78;5121113;27;20034;-77
2023/06/08 01:57:16;;;;;;;24.75;20.85;;;;;;;13.18;100.00;99763.78;5121340;27;19923;-78
2023/06/08 02:00:00;;;;;;;26.40;22.15;;;;;;;13.22;100.00;99765.00;5121337;27;20120;-77
2023/06/08 02:02:44;;;;;;;27.55;22.50;;;;;;;13.07;100.00;99767.75;5104059;27;20388;-77
2023/06/08 02:05:29;;;;;;;29.33;23.30;;;;;;;12.92;100.00;99762.59;5120897;27;20030;-77
2023/06/08 02:08:13;;;;;;;26.08;22.10;;;;;;;13.20;100.00;99761.75;5115924;27;20039;-77
2023/06/08 02:10:57;;;;;;;27.02;22.63;;;;;;;13.16;100.00;99766.59;5086976;28;20051;-78
2023/06/08 02:13:42;;;;;;;30.83;23.90;;;;;;;13.01;100.00;99756.16;5124720;27;20049;-79
2023/06/08 02:16:26;;;;;;;31.60;23.40;;;;;;;13.02;100.00;99762.25;5124358;27;20066;-79
2023/06/08 02:19:13;;;;;;;28.15;23.70;;;;;;;12.94;100.00;99758.75;5115908;27;20392;-78
2023/06/08 02:21:59;;;;;;;29.52;23.38;;;;;;;12.96;100.00;99762.00;5125634;27;20127;-79
2023/06/08 02:24:44;;;;;;;30.88;20.95;;;;;;;13.07;100.00;99751.94;5119545;28;20089;-79
2023/06/08 02:27:28;;;;;;;25.73;19.60;;;;;;;12.89;100.00;99757.72;5114725;28;20135;-79
2023/06/08 02:30:13;;;;;;;27.35;19.23;;;;;;;12.94;100.00;99750.84;5124047;28;20042;-78
2023/06/08 02:32:57;;;;;;;22.90;18.40;;;;;;;12.93;100.00;99762.41;5095991;28;20066;-79
2023/06/08 02:35:41;;;;;;;25.75;18.30;;;;;;;12.98;100.00;99753.91;5102436;28;20042;-79
2023/06/08 02:38:26;;;;;;;24.17;18.63;;;;;;;12.94;100.00;99748.22;5120539;28;20042;-79
2023/06/08 02:41:11;;;;;;;19.73;14.90;;;;;;;12.65;100.00;99750.03;5117915;28;20512;-78
2023/06/08 02:43:55;;;;;;;22.77;16.00;;;;;;;12.49;100.00;99751.13;5120193;28;20095;-77
2023/06/08 02:46:39;;;;;;;25.13;18.55;;;;;;;12.64;100.00;99752.84;5109024;28;20039;-78
2023/06/08 02:49:23;;;;;;;25.90;18.13;;;;;;;12.75;100.00;99741.81;5097924;28;20092;-78
2023/06/08 02:52:07;;;;;;;24.75;17.88;;;;;;;12.68;100.00;99752.28;5102998;28;20069;-78
2023/06/08 02:54:52;;;;;;;27.13;19.50;;;;;;;12.47;100.00;99749.69;5117363;28;20587;-79
2023/06/08 02:57:38;;;;;;;26.23;19.40;;;;;;;12.76;100.00;99756.59;5121523;28;20050;-77
2023/06/08 03:00:23;;;;;;;30.83;21.17;;;;;;;12.52;100.00;99749.91;5123960;27;20105;-78
2023/06/08 03:03:07;;;;;;;33.17;24.00;;;;;;;12.36;100.00;99751.81;5099509;28;20121;-78
2023/06/08 03:05:58;;;;;;;28.58;22.00;;;;;;;12.37;100.00;99745.53;5110757;27;20568;-78
2023/06/08 03:08:43;;;;;;;32.65;23.17;;;;;;;12.53;100.00;99751.56;5098862;28;20066;-77
2023/06/08 03:11:27;;;;;;;30.83;22.60;;;;;;;12.52;100.00;99749.91;5125458;27;20038;-78
2023/06/08 03:14:11;;;;;;;30.48;23.65;;;;;;;12.63;100.00;99756.50;5121473;27;20471;-77
2023/06/08 03:16:57;;;;;;;34.72;25.45;;;;;;;12.59;100.00;99747.34;5115727;27;20042;-76
2023/06/08 03:19:41;;;;;;;32.85;24.45;;;;;;;12.65;100.00;99739.50;5117429;27;20050;-77
2023/06/08 03:22:25;;;;;;;30.45;23.25;;;;;;;12.71;100.00;99749.28;5127098;27;20042;-77
2023/06/08 03:25:10;;;;;;;26.60;22.83;;;;;;;12.43;100.00;99747.44;5121629;27;20085;-77
2023/06/08 03:27:55;;;;;;;27.63;22.15;;;;;;;12.70;100.00;99726.56;5121567;27;20047;-77
2023/06/08 03:30:39;;;;;;;27.15;21.73;;;;;;;12.85;100.00;99741.47;5115029;27;20081;-77
2023/06/08 03:33:24;;;;;;;29.10;21.90;;;;;;;12.71;100.00;99733.47;5118588;27;20091;-77
2023/06/08 03:36:08;;;;;;;30.65;21.35;;;;;;;12.73;100.00;99730.66;5123994;27;20500;-78
2023/06/08 03:38:51;;;;;;;31.05;22.00;;;;;;;12.80;100.00;99720.16;5128446;27;20042;-76
2023/06/08 03:41:35;;;;;;;28.88;22.30;;;;;;;12.81;100.00;99722.59;5122152;27;20143;-77
2023/06/08 03:44:20;;;;;;;27.83;22.40;;;;;;;12.74;100.00;99723.53;5114612;27;20037;-77
2023/06/08 03:47:04;;;;;;;29.40;22.77;;;;;;;12.44;100.00;99714.00;5122006;27;20042;-77
2023/06/08 03:49:48;;;;;;;31.85;24.15;;;;;;;12.61;100.00;99722.47;5123366;27;20039;-78
2023/06/08 03:52:32;;;;;;;37.47;25.48;;;;;;;12.70;100.00;99717.88;5114332;27;20074;-76
2023/06/08 03:55:16;;;;;;;30.45;25.08;;;;;;;12.70;100.00;99712.59;5117680;27;20396;-78
2023/06/08 03:58:01;;;;;;;33.97;25.88;;;;;;;12.79;100.00;99715.91;5127682;27;20171;-77
2023/06/08 04:00:45;;;;;;;34.10;26.10;;;;;;;12.62;100.00;99713.56;5117726;27;20112;-78
2023/06/08 04:03:29;;;;;;;33.13;25.33;;;;;;;12.84;100.00;99727.47;5114171;27;20160;-77
2023/06/08 04:06:16;;;;;;;37.90;27.45;;;;;;;12.57;100.00;99722.03;5118382;27;20123;-76
2023/06/08 04:09:01;;;;;;;37.13;27.95;;;;;;;12.47;100.00;99720.72;5124209;27;20046;-77
2023/06/08 04:11:45;;;;;;;40.55;28.48;;;;;;;12.22;100.00;99705.31;5116550;27;20062;-77
2023/06/08 04:14:30;;;;;;;35.10;26.35;;;;;;;12.12;100.00;99714.34;5119185;27;20370;-77
2023/06/08 04:17:15;;;;;;;37.05;26.35;;;;;;;12.17;100.00;99715.59;5117704;27;20440;-77
2023/06/08 04:19:59;;;;;;;37.55;26.13;;;;;;;12.52;100.00;99720.97;5122330;27;20123;-77
2023/06/08 04:22:44;;;;;;;35.45;25.95;;;;;;;12.53;100.00;99714.69;5115668;27;20058;-76
2023/06/08 04:25:28;;;;;;;29.63;24.15;;;;;;;12.23;100.00;99714.84;5120220;27;20042;-77
2023/06/08 04:28:12;;;;;;;33.00;25.10;;;;;;;12.52;100.00;99718.31;5113828;27;20066;-77
2023/06/08 04:30:58;;;;;;;31.73;24.08;;;;;;;12.63;100.00;99720.44;5120127;27;20186;-77
2023/06/08 04:33:43;;;;;;;34.65;24.23;;;;;;;12.46;100.00;99711.19;5104765;27;20401;-77
2023/06/08 04:36:27;;;;;;;26.45;21.42;;;;;;;12.09;100.00;99709.44;5125526;27;20087;-76
2023/06/08 04:39:10;;;;;;;28.45;22.52;;;;;;;12.12;100.00;99718.81;5121871;27;20042;-77
2023/06/08 04:41:55;;;;;;;33.60;24.05;;;;;;;12.34;100.00;99711.69;5124802;27;20084;-78
2023/06/08 04:44:39;;;;;;;28.40;21.48;;;;;;;12.31;100.00;99698.91;5123303;27;20714;-79
2023/06/08 04:47:24;;;;;;;26.00;21.40;;;;;;;12.28;100.00;99708.03;5121494;27;20077;-78
2023/06/08 04:50:08;;;;;;;25.40;20.83;;;;;;;12.65;100.00;99707.06;5118146;27;20042;-76
2023/06/08 04:52:55;;;;;;;29.35;22.40;;;;;;;12.53;100.00;99710.25;5115076;27;20148;-77
2023/06/08 04:55:42;;;;;;;30.33;22.70;;;;;;;12.53;100.00;99698.88;5121318;27;20523;-78
2023/06/08 04:58:27;;;;;;;30.77;21.13;;;;;;;12.41;100.00;99701.22;5127008;27;20096;-78
2023/06/08 05:01:11;;;;;;;33.30;23.58;;;;;;;12.32;100.00;99708.44;5118235;27;20061;-77
2023/06/08 05:03:55;;;;;;;31.08;22.85;;;;;;;12.38;100.00;99707.69;5121958;27;20073;-78
2023/06/08 05:06:40;;;;;;;29.98;23.98;;;;;;;12.41;100.00;99706.50;5120504;27;20566;-78
2023/06/08 05:09:24;;;;;;;30.77;23.98;;;;;;;12.38;100.00;99699.81;5117642;27;20169;-77
2023/06/08 05:12:08;;;;;;;38.05;24.15;;;;;;;12.60;100.00;99704.19;5119176;27;20042;-77
2023/06/08 05:14:52;;;;;;;31.38;23.40;;;;;;;12.75;100.00;99701.47;5117587;27;20064;-77
2023/06/08 05:17:36;;;;;;;31.73;24.15;;;;;;;12.63;100.00;99709.09;5115852;27;20043;-77
2023/06/08 05:20:24;;;;;;;30.73;23.63;;;;;;;12.57;100.00;99705.38;5119444;27;20049;-77
2023/06/08 05:23:08;;;;;;;34.00;24.77;;;;;;;12.95;100.00;99705.03;5116109;27;20038;-76
2023/06/08 05:25:53;;;;;;;27.80;22.90;;;;;;;13.21;100.00;99694.84;5114298;27;20034;-76
2023/06/08 05:28:37;;;;;;;31.45;22.80;;;;;;;13.23;100.00;99704.19;5115085;27;20144;-76
2023/06/08 05:31:21;;;;;;;30.52;23.73;;;;;;;12.75;100.00;99691.75;5117632;27;20451;-78
2023/06/08 05:34:05;;;;;;;32.30;23.40;;;;;;;13.16;100.00;99702.53;5100853;27;20112;-77
2023/06/08 05:36:49;;;;;;;28.83;23.27;;;;;;;12.85;100.00;99702.75;5124669;27;20056;-76
2023/06/08 05:39:33;;;;;;;33.45;23.63;;;;;;;13.24;100.00;99700.56;5116969;27;20065;-76
2023/06/08 05:42:17;;;;;;;34.83;24.40;;;;;;;13.13;100.00;99703.72;5116815;27;20119;-76
2023/06/08 05:45:01;;;;;;;32.58;24.00;;;;;;;12.77;100.00;99697.66;5119904;27;20030;-77
2023/06/08 05:47:46;;;;;;;29.90;23.98;;;;;;;12.89;100.00;99700.56;5123236;27;20054;-78
2023/06/08 05:50:30;;;;;;;28.40;23.60;;;;;;;13.04;100.00;99686.47;5118766;27;20478;-76
2023/06/08 05:53:14;;;;;;;29.92;24.45;;;;;;;13.34;100.00;99702.00;5101715;27;20068;-77
2023/06/08 05:55:58;;;;;;;32.15;24.05;;;;;;;13.23;100.00;99688.38;5113744;27;20096;-78
2023/06/08 05:58:42;;;;;;;35.58;27.67;;;;;;;12.95;100.00;99683.97;5120268;27;20100;-76
2023/06/08 06:01:27;;;;;;;33.70;26.42;;;;;;;12.95;100.00;99694.50;5118811;27;20552;-77
2023/06/08 06:04:12;;;;;;;34.45;25.08;;;;;;;12.97;100.00;99689.88;5111881;27;20095;-79
2023/06/08 06:06:56;;;;;;;34.90;25.25;;;;;;;13.07;100.00;99700.06;5094125;27;20038;-78
2023/06/08 06:09:40;;;;;;;35.92;24.70;;;;;;;12.76;100.00;99689.91;5116208;27;20153;-77
2023/06/08 06:12:24;;;;;;;31.45;24.13;;;;;;;13.35;100.00;99695.72;5120783;27;20042;-79
2023/06/08 06:15:09;;;;;;;36.20;25.30;;;;;;;13.54;100.00;99671.28;5115037;27;20546;-80
2023/06/08 06:17:53;;;;;;;27.63;23.20;;;;;;;13.37;100.00;99688.44;5110870;27;20049;-78
2023/06/08 06:20:37;;;;;;;32.22;24.85;;;;;;;13.87;99.53;99692.66;5116689;27;20456;-79
2023/06/08 06:23:21;;;;;;;26.75;23.35;;;;;;;13.88;98.46;99695.13;5104861;28;20117;-80
2023/06/08 06:26:05;;;;;;;;;;;;;;;14.32;97.86;99700.84;5118368;27;20034;-81
2023/06/08 06:28:49;;;;;;;29.60;22.90;;;;;;;14.49;96.69;99695.16;5118133;28;19936;-80
2023/06/08 06:31:33;;;;;;;26.52;22.65;;;;;;;14.09;96.40;99678.28;5118500;28;20092;-81
2023/06/08 06:34:17;;;;;;;28.85;23.65;;;;;;;14.19;97.62;99685.81;5109323;27;20073;-81
2023/06/08 06:37:01;;;;;;;26.00;22.67;;;;;;;14.43;97.96;99692.31;5121903;27;20038;-80
2023/06/08 06:39:45;;;;;;;29.85;22.73;;;;;;;14.29;97.92;99690.69;5115608;27;20123;-79
2023/06/08 06:42:30;;;;;;;28.33;22.83;;;;;;;13.81;99.42;99695.09;5117917;27;20050;-79
2023/06/08 06:45:14;;;;;;;24.77;22.05;;;;;;;13.87;98.44;99688.22;5100754;27;20135;-79
2023/06/08 06:47:58;;;;;;;;;;;;;;;14.09;97.98;99690.69;5122534;27;20074;-80
2023/06/08 06:50:42;;;;;;;32.13;21.30;;;;;;;14.05;98.06;99685.00;5107838;28;20014;-79
2023/06/08 06:53:26;;;;;;;25.38;21.05;;;;;;;14.36;96.18;99680.94;5119411;27;20545;-78
2023/06/08 06:56:10;;;;;;;24.85;21.52;;;;;;;14.17;96.45;99676.47;5105845;27;20088;-79
2023/06/08 06:58:55;;;;;;;33.25;22.73;;;;;;;14.17;96.46;99687.03;5102322;27;20042;-78
2023/06/08 07:01:39;;;;;;;30.88;22.88;;;;;;;14.29;96.19;99674.84;5104109;27;20531;-79
2023/06/08 07:04:23;;;;;;;32.47;23.48;;;;;;;14.75;95.31;99673.22;5114411;27;20078;-79
2023/06/08 07:07:08;;;;;;;30.02;22.70;;;;;;;14.84;94.65;99679.09;5122885;27;20046;-79
2023/06/08 07:09:52;;;;;;;30.52;25.17;;;;;;;14.74;94.80;99665.47;5118777;27;20042;-77
2023/06/08 07:12:36;;;;;;;32.28;23.65;;;;;;;14.19;94.60;99679.72;5120585;27;20068;-81
2023/06/08 07:15:20;;;;;;;32.20;22.70;;;;;;;14.36;95.06;99680.94;5121288;27;20050;-80
2023/06/08 07:18:07;;;;;;;30.55;21.63;;;;;;;14.55;94.50;99678.50;5120797;27;20092;-79
2023/06/08 07:20:51;;;;;;;32.80;21.45;;;;;;;14.12;95.54;99691.06;5104650;27;20100;-79
2023/06/08 07:23:35;;;;;;;30.75;23.20;;;;;;;13.77;97.09;99687.78;5091524;27;20050;-90
2023/06/08 07:26:19;;;;;;;30.55;22.65;;;;;;;14.07;95.67;99682.16;5110811;27;20084;-89
2023/06/08 07:29:03;;;;;;;30.13;21.67;;;;;;;14.49;94.71;99689.88;5134025;27;20050;-88
2023/06/08 07:31:47;;;;;;;27.58;21.45;;;;;;;14.41;93.74;99690.88;5108833;27;20042;-88
2023/06/08 07:34:31;;;;;;;;;;;;;;;14.27;93.96;99692.72;5115093;27;20492;-86
2023/06/08 07:37:15;;;;;;;30.40;21.65;;;;;;;14.37;93.89;99708.16;5123730;27;19919;-84
2023/06/08 07:39:59;;;;;;;31.55;23.17;;;;;;;14.54;94.10;99698.00;5124350;27;20046;-83
2023/06/08 07:42:43;;;;;;;29.58;22.85;;;;;;;14.76;92.91;99706.53;5109113;27;20042;-84
2023/06/08 07:45:27;;;;;;;33.30;22.33;;;;;;;14.54;91.93;99679.50;5122300;27;20100;-85
2023/06/08 07:48:11;;;;;;;26.38;21.48;;;;;;;14.50;92.72;99696.78;5120972;27;20046;-85
2023/06/08 07:50:56;;;;;;;27.45;21.30;;;;;;;14.84;91.73;99706.34;5122719;27;20046;-85
2023/06/08 07:53:41;;;;;;;22.50;18.17;;;;;;;15.13;88.70;99700.75;5121856;27;20093;-83
2023/06/08 07:56:25;;;;;;;20.65;18.50;;;;;;;15.67;88.20;99711.97;5121710;27;20043;-85
2023/06/08 07:59:09;;;;;;;18.05;15.55;;;;;;;15.40;88.06;99700.69;5123362;27;20041;-80
2023/06/08 08:01:53;;;;;;;20.38;16.70;;;;;;;15.98;86.73;99694.50;5122298;27;20046;-79
2023/06/08 08:04:37;;;;;;;18.92;16.92;;;;;;;15.91;85.68;99690.25;5115496;27;20104;-80
2023/06/08 08:07:21;;;;;;;20.02;17.33;;;;;;;16.74;85.46;99700.84;5120069;27;20046;-80
2023/06/08 08:10:06;;;;;;;19.17;17.05;;;;;;;17.10;83.37;99697.41;5097458;28;20090;-83
2023/06/08 08:12:50;;;;;;;21.15;18.00;;;;;;;17.10;82.91;99686.03;5101439;27;20526;-81
2023/06/08 08:15:35;;;;;;;19.98;16.60;;;;;;;16.94;81.70;99688.19;5115622;27;20066;-80
2023/06/08 08:18:19;;;;;;;17.73;15.93;;;;;;;16.70;83.22;99690.69;5123683;27;20104;-79
2023/06/08 08:21:03;;;;;;;17.15;15.30;;;;;;;16.21;82.88;99689.66;5124307;27;20047;-80
2023/06/08 08:23:48;;;;;;;;;;;;;;;16.91;82.40;99698.41;5103694;27;20089;-80
2023/06/08 08:26:32;;;;;;;19.05;16.70;;;;;;;16.95;81.09;99697.75;5123570;27;19918;-80
2023/06/08 08:29:16;;;;;;;20.58;16.20;;;;;;;17.57;80.14;99701.34;5124333;27;20030;-80
2023/06/08 08:32:00;;;;;;;21.15;17.05;;;;;;;18.05;78.31;99690.91;5121225;27;20511;-79
2023/06/08 08:34:44;;;;;;;19.98;17.00;;;;;;;18.01;76.74;99695.84;5124608;27;20543;-78
2023/06/08 08:37:28;;;;;;;22.85;19.33;;;;;;;17.48;78.99;99703.50;5123469;27;20072;-79
2023/06/08 08:40:13;;;;;;;21.00;18.67;;;;;;;17.59;78.11;99693.16;5122281;27;20045;-77
2023/06/08 08:43:07;;;;;;;19.67;17.42;;;;;;;18.25;76.95;99699.38;5119835;27;20545;-80
2023/06/08 08:45:52;;;;;;;19.90;17.65;;;;;;;18.33;76.41;99687.63;5101022;28;20058;-79
2023/06/08 08:48:44;;;;;;;20.48;18.33;;;;;;;18.26;76.22;99689.56;5124561;27;20042;-78
2023/06/08 08:51:29;;;;;;;23.67;18.65;;;;;;;17.95;76.19;99681.63;5118333;27;20085;-77
2023/06/08 08:54:15;;;;;;;19.33;17.33;;;;;;;17.98;77.13;99686.50;5120747;27;20065;-78
2023/06/08 08:57:00;;;;;;;20.95;18.65;;;;;;;18.53;76.44;99689.91;5103965;27;20532;-77
2023/06/08 08:59:45;;;;;;;20.30;18.40;;;;;;;18.49;75.92;99680.00;5124636;27;20408;-80
2023/06/08 09:02:29;;;;;;;22.92;18.73;;;;;;;17.46;76.55;99689.63;5129660;27;20043;-80
2023/06/08 09:05:13;;;;;;;22.65;18.27;;;;;;;18.04;75.99;99695.41;5119628;27;20085;-81
2023/06/08 09:07:57;;;;;;;22.75;19.75;;;;;;;18.04;76.44;99695.41;5121567;27;20122;-80
2023/06/08 09:10:41;;;;;;;;;;;;;;;18.39;76.04;99692.00;5108749;27;20051;-81
2023/06/08 09:13:25;;;;;;;24.73;19.98;;;;;;;17.91;75.00;99687.63;5108039;27;19934;-80
2023/06/08 09:16:10;;;;;;;22.05;19.17;;;;;;;17.74;75.47;99690.91;5126364;27;20062;-80
2023/06/08 09:19:13;;;;;;;22.42;20.17;;;;;;;18.08;75.57;99688.63;5121262;27;20046;-79
2023/06/08 09:21:57;;;;;;;23.38;20.98;;;;;;;17.66;75.85;99701.84;5119411;27;20050;-80
2023/06/08 09:24:49;;;;;;;23.40;21.00;;;;;;;18.21;75.46;99684.94;5123502;27;20039;-80
2023/06/08 09:27:34;;;;;;;25.23;21.97;;;;;;;18.76;73.13;99692.81;5106350;27;20064;-80
2023/06/08 09:30:23;;;;;;;27.75;22.20;;;;;;;18.94;72.78;99698.00;5121006;27;20073;-80
2023/06/08 09:33:24;;;;;;;23.63;20.17;;;;;;;18.68;72.76;99694.78;5119720;27;20069;-80
2023/06/08 09:36:15;;;;;;;21.52;19.17;;;;;;;19.20;71.94;99695.09;5121298;27;20396;-80
2023/06/08 09:38:59;;;;;;;20.75;18.60;;;;;;;18.80;72.41;99692.13;5121247;27;20047;-80
2023/06/08 09:41:56;;;;;;;22.38;17.83;;;;;;;18.01;72.79;99685.22;5120911;27;20085;-80
2023/06/08 09:44:41;;;;;;;21.67;19.00;;;;;;;18.34;73.03;99688.41;5122356;27;20495;-90
2023/06/08 09:47:25;;;;;;;20.85;18.60;;;;;;;18.37;73.63;99688.75;5119783;27;20054;-88
2023/06/08 09:50:11;;;;;;;21.13;19.02;;;;;;;18.98;72.89;99677.88;5104608;27;20115;-84
2023/06/08 09:52:56;;;;;;;20.23;18.13;;;;;;;19.77;71.09;99675.66;5118517;27;20057;-89
2023/06/08 09:55:41;;;;;;;20.42;17.45;;;;;;;19.76;70.25;99666.03;5122373;27;20443;-86
2023/06/08 09:58:26;;;;;;;19.27;17.55;;;;;;;19.27;71.03;99669.97;5119500;27;20059;-86
2023/06/08 10:01:12;;;;;;;21.40;19.30;;;;;;;18.92;71.94;99662.84;5109483;27;20054;-86
2023/06/08 10:03:59;;;;;;;22.40;17.00;;;;;;;20.27;70.45;99654.63;5117770;27;20038;-84
2023/06/08 10:06:44;;;;;;;18.77;16.98;;;;;;;20.30;69.48;99667.47;5120030;27;20046;-80
2023/06/08 10:09:31;;;;;;;21.77;19.48;;;;;;;19.73;69.49;99647.88;5119009;27;20503;-79
2023/06/08 10:12:15;;;;;;;20.98;18.17;;;;;;;18.74;71.17;99660.31;5111383;27;20515;-79
2023/06/08 10:15:00;;;;;;;19.77;16.10;;;;;;;19.35;69.92;99666.09;5120376;27;20050;-84
2023/06/08 10:17:46;;;;;;;17.58;15.68;;;;;;;18.44;71.47;99650.63;5104075;27;20057;-79
2023/06/08 10:20:32;;;;;;;18.20;16.17;;;;;;;19.57;71.08;99656.66;5127076;27;20042;-80
2023/06/08 10:23:18;;;;;;;17.75;15.98;;;;;;;19.13;69.90;99653.44;5104709;27;20042;-80
2023/06/08 10:26:04;;;;;;;19.45;17.45;;;;;;;18.97;71.01;99654.16;5116087;27;20050;-79
2023/06/08 10:29:06;;;;;;;18.52;16.38;;;;;;;18.51;71.58;99640.69;5107485;28;20100;-79
2023/06/08 10:31:50;;;;;;;18.70;16.23;;;;;;;18.26;72.12;99649.69;5124608;28;20054;-79
2023/06/08 10:34:40;;;;;;;17.10;15.40;;;;;;;17.31;73.39;99623.72;5106730;28;20066;-79
2023/06/08 10:37:29;;;;;;;18.70;16.90;;;;;;;17.55;73.98;99623.78;5100742;28;20042;-80
2023/06/08 10:40:14;;;;;;;19.58;16.83;;;;;;;17.17;75.46;99627.56;5115879;28;20122;-79
2023/06/08 10:42:58;;;;;;;19.85;16.73;;;;;;;16.92;76.31;99637.22;5122163;28;20674;-79
2023/06/08 10:45:45;;;;;;;20.98;17.58;;;;;;;17.89;76.00;99628.63;5113620;28;20119;-80
2023/06/08 10:48:39;;;;;;;19.30;17.15;;;;;;;18.62;73.94;99626.56;5112599;28;20066;-81
2023/06/08 10:51:23;;;;;;;19.33;17.33;;;;;;;18.40;73.71;99629.81;5120227;28;20029;-80
2023/06/08 10:54:09;;;;;;;26.10;17.67;;;;;;;18.44;73.32;99629.38;5125859;28;20084;-79
2023/06/08 10:56:58;;;;;;;21.45;17.33;;;;;;;19.16;72.29;99617.56;5121731;28;20512;-80
2023/06/08 10:59:44;;;;;;;21.20;17.65;;;;;;;19.89;71.73;99621.50;5117591;28;20039;-80
2023/06/08 11:02:29;;;;;;;20.85;17.17;;;;;;;20.12;70.04;99612.53;5116404;28;20086;-79
2023/06/08 11:05:15;;;;;;;19.95;16.13;;;;;;;20.10;70.56;99615.47;5121689;28;20046;-80
2023/06/08 11:08:03;;;;;;;17.67;15.50;;;;;;;21.33;68.84;99616.47;5105003;28;20509;-80
2023/06/08 11:10:52;;;;;;;19.77;16.35;;;;;;;21.29;67.73;99607.38;5104781;28;20168;-80
2023/06/08 11:13:37;;;;;;;20.92;15.63;;;;;;;20.58;68.92;99611.59;5103843;28;20087;-81
2023/06/08 11:16:21;;;;;;;16.73;15.13;;;;;;;20.71;67.50;99605.88;5123178;28;20104;-79
2023/06/08 11:19:09;;;;;;;18.60;15.30;;;;;;;20.87;68.81;99603.44;5115301;28;20061;-80
2023/06/08 11:21:56;;;;;;;18.10;15.77;;;;;;;19.92;68.72;99599.72;5117405;27;20045;-80
2023/06/08 11:24:42;;;;;;;17.42;15.73;;;;;;;20.63;68.80;99598.31;5125874;27;20038;-80
2023/06/08 11:27:27;;;;;;;17.08;15.32;;;;;;;20.96;68.95;99610.75;5128824;27;20066;-79
2023/06/08 11:30:21;;;;;;;20.25;17.70;;;;;;;19.75;69.83;99605.00;5118315;27;20037;-79
2023/06/08 11:33:08;;;;;;;18.10;16.30;;;;;;;18.82;71.36;99612.91;5124198;27;20131;-79
2023/06/08 11:35:53;;;;;;;20.70;17.38;;;;;;;19.14;71.60;99598.38;5107722;27;20100;-79
2023/06/08 11:38:39;;;;;;;20.67;18.55;;;;;;;18.76;72.72;99607.72;5107074;27;20073;-80
2023/06/08 11:41:22;;;;;;;20.33;17.33;;;;;;;19.35;72.96;99590.78;5125268;27;20042;-79
2023/06/08 11:44:08;;;;;;;28.65;17.75;;;;;;;19.10;73.70;99595.38;5120213;27;20034;-80
2023/06/08 11:46:53;;;;;;;21.52;17.27;;;;;;;19.46;72.31;99576.59;5106051;27;20042;-81
2023/06/08 11:49:53;;;;;;;22.77;17.90;;;;;;;20.17;73.67;99583.31;5120998;27;20045;-83
2023/06/08 11:52:44;;;;;;;22.17;17.90;;;;;;;19.18;72.32;99580.09;5122227;27;20045;-80
2023/06/08 11:55:30;;;;;;;19.67;17.20;;;;;;;19.72;72.01;99581.53;5120966;27;20096;-80
2023/06/08 11:58:15;;;;;;;21.98;15.98;;;;;;;19.48;71.74;99581.66;5119836;27;20137;-80
2023/06/08 12:01:07;;;;;;;17.88;16.00;;;;;;;20.45;70.56;99580.78;5122230;27;20134;-79
2023/06/08 12:03:51;;;;;;;21.40;16.92;;;;;;;19.65;71.86;99582.50;5126059;27;20050;-80
2023/06/08 12:06:36;;;;;;;18.92;15.27;;;;;;;20.08;70.81;99577.59;5104977;27;20506;-80
2023/06/08 12:09:20;;;;;;;17.33;15.63;;;;;;;19.48;71.38;99577.16;5102731;27;20046;-80
2023/06/08 12:12:09;;;;;;;19.95;16.00;;;;;;;19.36;70.77;99587.06;5122477;27;20108;-79
2023/06/08 12:14:55;;;;;;;23.25;16.00;;;;;;;18.75;71.24;99588.28;5124933;27;20035;-78
2023/06/08 12:17:39;;;;;;;19.35;16.63;;;;;;;18.67;73.34;99580.69;5122421;27;20123;-79
2023/06/08 12:20:30;;;;;;;17.02;15.07;;;;;;;18.95;73.30;99582.56;5120839;27;20051;-79
2023/06/08 12:23:14;;;;;;;18.60;15.20;;;;;;;19.02;72.16;99565.69;5118325;27;20037;-79
2023/06/08 12:25:58;;;;;;;18.02;16.20;;;;;;;19.38;73.07;99566.34;5122228;27;20058;-79
2023/06/08 12:28:43;;;;;;;22.98;16.25;;;;;;;19.63;72.47;99560.63;5120535;27;20035;-78
2023/06/08 12:31:27;;;;;;;17.63;14.95;;;;;;;19.51;72.08;99546.56;5109564;27;20112;-80
2023/06/08 12:34:12;;;;;;;18.95;16.95;;;;;;;19.66;72.04;99554.03;5106018;27;20492;-79
2023/06/08 12:36:56;;;;;;;17.77;15.63;;;;;;;19.69;71.01;99564.19;5123649;27;20046;-78
2023/06/08 12:39:40;;;;;;;17.95;15.13;;;;;;;19.39;71.79;99565.28;5123627;27;20100;-80